Terminal Aerodrome Forecast
Issued by NWS Twin Cities, MN

Home | Current Version | Previous Version | Graphics & Text | Print | Product List | Glossary On
Versions: 1 2 3 4 5 6 7 8 9 10 11 12 13 14
000
FTUS43 KMPX 251500 AAA
TAFSTC
TAF AMD
KSTC 251508Z 2515/2612 20005KT 5SM -SN BR OVC010
     FM251900 33004KT 6SM -SN SCT009 OVC020
     FM260300 36004KT P6SM OVC008=

USA.gov is the U.S. government's official web portal to all federal, state and local government web resources and services.